sensor_id;sensor_type;location;lat;lon;timestamp;pressure;altitude;pressure_sealevel;temperature;humidity
1616;BME280;801;47.982;7.810;2023-11-19T00:00:25;98767.34;;;12.71;100.00
1616;BME280;801;47.982;7.810;2023-11-19T00:02:51;98765.19;;;12.73;100.00
1616;BME280;801;47.982;7.810;2023-11-19T00:05:18;98774.88;;;12.79;100.00
1616;BME280;801;47.982;7.810;2023-11-19T00:07:45;98769.22;;;12.75;100.00
1616;BME280;801;47.982;7.810;2023-11-19T00:10:13;98764.38;;;12.67;100.00
1616;BME280;801;47.982;7.810;2023-11-19T00:12:45;98761.94;;;12.60;100.00
1616;BME280;801;47.982;7.810;2023-11-19T00:15:11;98754.38;;;12.52;100.00
1616;BME280;801;47.982;7.810;2023-11-19T00:17:38;98743.59;;;12.27;100.00
1616;BME280;801;47.982;7.810;2023-11-19T00:20:06;98752.44;;;12.12;100.00
1616;BME280;801;47.982;7.810;2023-11-19T00:22:33;98750.06;;;12.41;100.00
1616;BME280;801;47.982;7.810;2023-11-19T00:25:00;98741.22;;;11.62;100.00
1616;BME280;801;47.982;7.810;2023-11-19T00:27:28;98736.16;;;11.18;100.00
1616;BME280;801;47.982;7.810;2023-11-19T00:29:55;98733.56;;;11.33;100.00
1616;BME280;801;47.982;7.810;2023-11-19T00:32:22;98738.03;;;11.12;100.00
1616;BME280;801;47.982;7.810;2023-11-19T00:34:49;98739.19;;;11.27;100.00
1616;BME280;801;47.982;7.810;2023-11-19T00:37:15;98746.75;;;12.03;100.00
1616;BME280;801;47.982;7.810;2023-11-19T00:39:42;98744.94;;;12.29;100.00
1616;BME280;801;47.982;7.810;2023-11-19T00:42:08;98726.63;;;12.36;100.00
1616;BME280;801;47.982;7.810;2023-11-19T00:44:36;98709.66;;;12.61;100.00
1616;BME280;801;47.982;7.810;2023-11-19T00:47:03;98704.78;;;12.58;100.00
1616;BME280;801;47.982;7.810;2023-11-19T00:49:30;98730.66;;;12.75;100.00
1616;BME280;801;47.982;7.810;2023-11-19T00:51:58;98761.94;;;12.76;100.00
1616;BME280;801;47.982;7.810;2023-11-19T00:54:24;98737.66;;;12.96;100.00
1616;BME280;801;47.982;7.810;2023-11-19T00:56:51;98730.34;;;13.12;100.00
1616;BME280;801;47.982;7.810;2023-11-19T00:59:17;98688.50;;;13.15;100.00
1616;BME280;801;47.982;7.810;2023-11-19T01:01:45;98687.44;;;13.05;100.00
1616;BME280;801;47.982;7.810;2023-11-19T01:04:13;98686.38;;;13.01;100.00
1616;BME280;801;47.982;7.810;2023-11-19T01:06:40;98689.09;;;13.06;100.00
1616;BME280;801;47.982;7.810;2023-11-19T01:09:07;98694.47;;;13.01;100.00
1616;BME280;801;47.982;7.810;2023-11-19T01:11:34;98677.72;;;13.09;100.00
1616;BME280;801;47.982;7.810;2023-11-19T01:14:01;98675.84;;;13.05;100.00
1616;BME280;801;47.982;7.810;2023-11-19T01:16:28;98667.50;;;13.06;100.00
1616;BME280;801;47.982;7.810;2023-11-19T01:18:56;98672.59;;;13.13;100.00
1616;BME280;801;47.982;7.810;2023-11-19T01:21:22;98677.19;;;13.18;100.00
1616;BME280;801;47.982;7.810;2023-11-19T01:23:49;98677.69;;;13.30;100.00
1616;BME280;801;47.982;7.810;2023-11-19T01:26:15;98660.44;;;13.31;100.00
1616;BME280;801;47.982;7.810;2023-11-19T01:28:42;98675.75;;;13.41;100.00
1616;BME280;801;47.982;7.810;2023-11-19T01:31:13;98663.91;;;13.42;100.00
1616;BME280;801;47.982;7.810;2023-11-19T01:33:41;98683.81;;;13.46;100.00
1616;BME280;801;47.982;7.810;2023-11-19T01:36:12;98702.72;;;13.51;100.00
1616;BME280;801;47.982;7.810;2023-11-19T01:38:39;98685.72;;;13.45;100.00
1616;BME280;801;47.982;7.810;2023-11-19T01:41:06;98700.31;;;13.44;100.00
1616;BME280;801;47.982;7.810;2023-11-19T01:43:34;98684.91;;;13.50;100.00
1616;BME280;801;47.982;7.810;2023-11-19T01:46:00;98698.75;;;13.33;100.00
1616;BME280;801;47.982;7.810;2023-11-19T01:48:27;98696.03;;;13.28;100.00
1616;BME280;801;47.982;7.810;2023-11-19T01:50:55;98697.72;;;12.98;100.00
1616;BME280;801;47.982;7.810;2023-11-19T01:53:23;98697.25;;;12.71;100.00
1616;BME280;801;47.982;7.810;2023-11-19T01:55:50;98701.31;;;12.53;100.00
1616;BME280;801;47.982;7.810;2023-11-19T01:58:17;98712.06;;;12.37;100.00
1616;BME280;801;47.982;7.810;2023-11-19T02:00:44;98701.81;;;12.03;100.00
1616;BME280;801;47.982;7.810;2023-11-19T02:03:11;98699.91;;;12.04;100.00
1616;BME280;801;47.982;7.810;2023-11-19T02:05:38;98699.91;;;12.04;100.00
1616;BME280;801;47.982;7.810;2023-11-19T02:08:05;98682.06;;;11.82;100.00
1616;BME280;801;47.982;7.810;2023-11-19T02:10:33;98699.31;;;11.87;100.00
1616;BME280;801;47.982;7.810;2023-11-19T02:13:00;98694.00;;;11.97;100.00
1616;BME280;801;47.982;7.810;2023-11-19T02:15:27;98706.59;;;11.86;100.00
1616;BME280;801;47.982;7.810;2023-11-19T02:17:54;98690.75;;;11.95;100.00
1616;BME280;801;47.982;7.810;2023-11-19T02:20:20;98684.81;;;11.93;100.00
1616;BME280;801;47.982;7.810;2023-11-19T02:22:47;98691.47;;;11.85;100.00
1616;BME280;801;47.982;7.810;2023-11-19T02:25:20;98696.56;;;11.76;100.00
1616;BME280;801;47.982;7.810;2023-11-19T02:27:54;98693.63;;;11.68;100.00
1616;BME280;801;47.982;7.810;2023-11-19T02:30:21;98684.19;;;11.70;100.00
1616;BME280;801;47.982;7.810;2023-11-19T02:32:51;98696.06;;;11.79;100.00
1616;BME280;801;47.982;7.810;2023-11-19T02:35:18;98684.75;;;11.72;100.00
1616;BME280;801;47.982;7.810;2023-11-19T02:37:47;98684.16;;;11.65;100.00
1616;BME280;801;47.982;7.810;2023-11-19T02:40:13;98692.81;;;11.72;100.00
1616;BME280;801;47.982;7.810;2023-11-19T02:42:40;98693.09;;;11.76;100.00
1616;BME280;801;47.982;7.810;2023-11-19T02:45:08;98698.22;;;11.82;100.00
1616;BME280;801;47.982;7.810;2023-11-19T02:47:39;98709.78;;;11.78;100.00
1616;BME280;801;47.982;7.810;2023-11-19T02:50:06;98687.44;;;11.77;100.00
1616;BME280;801;47.982;7.810;2023-11-19T02:52:40;98715.16;;;11.78;100.00
1616;BME280;801;47.982;7.810;2023-11-19T02:55:06;98706.03;;;11.84;100.00
1616;BME280;801;47.982;7.810;2023-11-19T02:57:35;98710.06;;;11.81;100.00
1616;BME280;801;47.982;7.810;2023-11-19T03:00:02;98712.22;;;11.84;100.00
1616;BME280;801;47.982;7.810;2023-11-19T03:02:40;98686.41;;;11.94;100.00
1616;BME280;801;47.982;7.810;2023-11-19T03:05:11;98708.47;;;11.86;100.00
1616;BME280;801;47.982;7.810;2023-11-19T03:07:40;98704.47;;;11.88;100.00
1616;BME280;801;47.982;7.810;2023-11-19T03:10:08;98689.13;;;11.89;100.00
1616;BME280;801;47.982;7.810;2023-11-19T03:12:37;98683.22;;;11.97;100.00
1616;BME280;801;47.982;7.810;2023-11-19T03:15:04;98709.31;;;11.91;100.00
1616;BME280;801;47.982;7.810;2023-11-19T03:17:31;98701.50;;;11.90;100.00
1616;BME280;801;47.982;7.810;2023-11-19T03:19:59;98677.81;;;11.97;100.00
1616;BME280;801;47.982;7.810;2023-11-19T03:22:26;98668.13;;;12.06;100.00
1616;BME280;801;47.982;7.810;2023-11-19T03:24:52;98659.78;;;12.13;100.00
1616;BME280;801;47.982;7.810;2023-11-19T03:27:19;98688.34;;;12.19;100.00
1616;BME280;801;47.982;7.810;2023-11-19T03:29:45;98667.88;;;12.13;100.00
1616;BME280;801;47.982;7.810;2023-11-19T03:32:12;98678.09;;;12.21;100.00
1616;BME280;801;47.982;7.810;2023-11-19T03:34:39;98672.72;;;12.21;100.00
1616;BME280;801;47.982;7.810;2023-11-19T03:37:07;98685.91;;;12.28;100.00
1616;BME280;801;47.982;7.810;2023-11-19T03:39:34;98696.69;;;12.28;100.00
1616;BME280;801;47.982;7.810;2023-11-19T03:42:00;98700.47;;;12.32;100.00
1616;BME280;801;47.982;7.810;2023-11-19T03:44:28;98687.28;;;12.35;100.00
1616;BME280;801;47.982;7.810;2023-11-19T03:46:55;98674.31;;;12.32;100.00
1616;BME280;801;47.982;7.810;2023-11-19T03:49:21;98645.25;;;12.24;100.00
1616;BME280;801;47.982;7.810;2023-11-19T03:51:49;98679.97;;;12.25;100.00
1616;BME280;801;47.982;7.810;2023-11-19T03:54:17;98668.44;;;12.30;100.00
1616;BME280;801;47.982;7.810;2023-11-19T03:56:43;98667.63;;;12.35;100.00
1616;BME280;801;47.982;7.810;2023-11-19T03:59:10;98671.63;;;12.27;100.00
1616;BME280;801;47.982;7.810;2023-11-19T04:01:36;98674.63;;;12.31;100.00
1616;BME280;801;47.982;7.810;2023-11-19T04:04:03;98692.94;;;12.39;100.00
1616;BME280;801;47.982;7.810;2023-11-19T04:06:30;98670.81;;;12.37;100.00
1616;BME280;801;47.982;7.810;2023-11-19T04:08:56;98695.63;;;12.44;100.00
1616;BME280;801;47.982;7.810;2023-11-19T04:11:24;98686.47;;;12.40;100.00
1616;BME280;801;47.982;7.810;2023-11-19T04:13:51;98669.78;;;12.33;100.00
1616;BME280;801;47.982;7.810;2023-11-19T04:16:17;98666.53;;;12.31;100.00
1616;BME280;801;47.982;7.810;2023-11-19T04:18:44;98667.06;;;12.43;100.00
1616;BME280;801;47.982;7.810;2023-11-19T04:21:10;98691.03;;;12.34;100.00
1616;BME280;801;47.982;7.810;2023-11-19T04:23:37;98662.19;;;12.45;100.00
1616;BME280;801;47.982;7.810;2023-11-19T04:26:04;98685.66;;;12.60;100.00
1616;BME280;801;47.982;7.810;2023-11-19T04:28:33;98687.00;;;12.62;100.00
1616;BME280;801;47.982;7.810;2023-11-19T04:30:59;98667.03;;;12.63;100.00
1616;BME280;801;47.982;7.810;2023-11-19T04:33:26;98687.47;;;13.00;100.00
1616;BME280;801;47.982;7.810;2023-11-19T04:35:52;98700.47;;;12.73;100.00
1616;BME280;801;47.982;7.810;2023-11-19T04:38:19;98674.03;;;12.70;100.00
1616;BME280;801;47.982;7.810;2023-11-19T04:40:45;98646.78;;;12.76;100.00
1616;BME280;801;47.982;7.810;2023-11-19T04:43:12;98662.19;;;12.76;100.00
1616;BME280;801;47.982;7.810;2023-11-19T04:45:40;98666.47;;;12.82;100.00
1616;BME280;801;47.982;7.810;2023-11-19T04:48:06;98667.56;;;12.76;100.00
1616;BME280;801;47.982;7.810;2023-11-19T04:50:34;98686.16;;;12.72;100.00
1616;BME280;801;47.982;7.810;2023-11-19T04:53:00;98682.38;;;12.78;100.00
1616;BME280;801;47.982;7.810;2023-11-19T04:55:28;98712.06;;;12.78;100.00
1616;BME280;801;47.982;7.810;2023-11-19T04:57:54;98701.53;;;12.87;100.00
1616;BME280;801;47.982;7.810;2023-11-19T05:00:21;98716.63;;;12.83;100.00
1616;BME280;801;47.982;7.810;2023-11-19T05:02:49;98677.53;;;12.91;100.00
1616;BME280;801;47.982;7.810;2023-11-19T05:05:15;98686.41;;;12.91;100.00
1616;BME280;801;47.982;7.810;2023-11-19T05:07:42;98689.66;;;12.83;100.00
1616;BME280;801;47.982;7.810;2023-11-19T05:10:09;98683.16;;;12.94;100.00
1616;BME280;801;47.982;7.810;2023-11-19T05:12:35;98684.53;;;12.92;100.00
1616;BME280;801;47.982;7.810;2023-11-19T05:15:02;98684.25;;;12.93;100.00
1616;BME280;801;47.982;7.810;2023-11-19T05:17:29;98698.81;;;12.97;100.00
1616;BME280;801;47.982;7.810;2023-11-19T05:19:57;98712.28;;;12.92;100.00
1616;BME280;801;47.982;7.810;2023-11-19T05:22:23;98700.97;;;13.00;100.00
1616;BME280;801;47.982;7.810;2023-11-19T05:24:51;98699.88;;;12.96;100.00
1616;BME280;801;47.982;7.810;2023-11-19T05:27:17;98704.72;;;12.99;100.00
1616;BME280;801;47.982;7.810;2023-11-19T05:29:44;98690.19;;;12.95;100.00
1616;BME280;801;47.982;7.810;2023-11-19T05:32:10;98693.94;;;12.94;100.00
1616;BME280;801;47.982;7.810;2023-11-19T05:34:37;98688.28;;;12.96;100.00
1616;BME280;801;47.982;7.810;2023-11-19T05:37:05;98664.81;;;12.96;100.00
1616;BME280;801;47.982;7.810;2023-11-19T05:39:32;98707.69;;;13.03;100.00
1616;BME280;801;47.982;7.810;2023-11-19T05:41:58;98681.53;;;12.98;100.00
1616;BME280;801;47.982;7.810;2023-11-19T05:44:25;98679.38;;;13.11;100.00
1616;BME280;801;47.982;7.810;2023-11-19T05:46:51;98691.19;;;13.15;100.00
1616;BME280;801;47.982;7.810;2023-11-19T05:49:18;98707.16;;;13.01;100.00
1616;BME280;801;47.982;7.810;2023-11-19T05:51:44;98686.91;;;13.08;100.00
1616;BME280;801;47.982;7.810;2023-11-19T05:54:12;98683.13;;;13.09;100.00
1616;BME280;801;47.982;7.810;2023-11-19T05:56:39;98675.53;;;13.17;100.00
1616;BME280;801;47.982;7.810;2023-11-19T05:59:06;98664.75;;;13.17;100.00
1616;BME280;801;47.982;7.810;2023-11-19T06:01:40;98674.47;;;13.18;100.00
1616;BME280;801;47.982;7.810;2023-11-19T06:04:07;98710.09;;;13.15;100.00
1616;BME280;801;47.982;7.810;2023-11-19T06:06:33;98704.13;;;13.28;100.00
1616;BME280;801;47.982;7.810;2023-11-19T06:09:00;98713.31;;;13.27;100.00
1616;BME280;801;47.982;7.810;2023-11-19T06:11:31;98714.66;;;13.29;100.00
1616;BME280;801;47.982;7.810;2023-11-19T06:13:57;98710.59;;;13.37;100.00
1616;BME280;801;47.982;7.810;2023-11-19T06:16:24;98713.00;;;13.39;100.00
1616;BME280;801;47.982;7.810;2023-11-19T06:18:50;98715.47;;;13.35;100.00
1616;BME280;801;47.982;7.810;2023-11-19T06:21:18;98690.63;;;13.38;100.00
1616;BME280;801;47.982;7.810;2023-11-19T06:23:45;98682.56;;;13.28;100.00
1616;BME280;801;47.982;7.810;2023-11-19T06:26:11;98684.94;;;13.35;100.00
1616;BME280;801;47.982;7.810;2023-11-19T06:28:40;98683.31;;;13.39;100.00
1616;BME280;801;47.982;7.810;2023-11-19T06:31:07;98689.00;;;13.42;100.00
1616;BME280;801;47.982;7.810;2023-11-19T06:33:33;98682.31;;;13.84;100.00
1616;BME280;801;47.982;7.810;2023-11-19T06:36:00;98690.00;;;13.57;100.00
1616;BME280;801;47.982;7.810;2023-11-19T06:38:26;98682.69;;;13.57;100.00
1616;BME280;801;47.982;7.810;2023-11-19T06:40:53;98679.22;;;13.52;100.00
1616;BME280;801;47.982;7.810;2023-11-19T06:43:20;98679.78;;;13.48;100.00
1616;BME280;801;47.982;7.810;2023-11-19T06:45:48;98666.56;;;13.47;100.00
1616;BME280;801;47.982;7.810;2023-11-19T06:48:14;98677.06;;;13.54;100.00
1616;BME280;801;47.982;7.810;2023-11-19T06:50:41;98688.09;;;13.57;100.00
1616;BME280;801;47.982;7.810;2023-11-19T06:53:07;98686.78;;;13.49;100.00
1616;BME280;801;47.982;7.810;2023-11-19T06:55:35;98686.75;;;13.55;100.00
1616;BME280;801;47.982;7.810;2023-11-19T06:58:02;98692.38;;;13.63;100.00
1616;BME280;801;47.982;7.810;2023-11-19T07:00:28;98690.59;;;13.48;100.00
1616;BME280;801;47.982;7.810;2023-11-19T07:02:59;98697.84;;;13.48;100.00
1616;BME280;801;47.982;7.810;2023-11-19T07:05:25;98696.81;;;13.39;100.00
1616;BME280;801;47.982;7.810;2023-11-19T07:07:52;98689.19;;;13.56;100.00
1616;BME280;801;47.982;7.810;2023-11-19T07:10:19;98701.31;;;13.59;100.00
1616;BME280;801;47.982;7.810;2023-11-19T07:12:46;98697.78;;;13.63;100.00
1616;BME280;801;47.982;7.810;2023-11-19T07:15:15;98701.59;;;13.57;100.00
1616;BME280;801;47.982;7.810;2023-11-19T07:17:42;98699.16;;;13.61;100.00
1616;BME280;801;47.982;7.810;2023-11-19T07:20:12;98698.06;;;13.67;100.00
1616;BME280;801;47.982;7.810;2023-11-19T07:22:42;98704.28;;;13.62;100.00
1616;BME280;801;47.982;7.810;2023-11-19T07:25:11;98706.69;;;13.69;100.00
1616;BME280;801;47.982;7.810;2023-11-19T07:27:37;98703.72;;;13.65;100.00
1616;BME280;801;47.982;7.810;2023-11-19T07:30:05;98711.50;;;13.77;100.00
1616;BME280;801;47.982;7.810;2023-11-19T07:32:32;98715.88;;;13.68;100.00
1616;BME280;801;47.982;7.810;2023-11-19T07:34:59;98708.28;;;13.70;100.00
1616;BME280;801;47.982;7.810;2023-11-19T07:37:27;98716.66;;;13.68;100.00
1616;BME280;801;47.982;7.810;2023-11-19T07:39:53;98730.44;;;13.72;100.00
1616;BME280;801;47.982;7.810;2023-11-19T07:42:20;98735.56;;;13.74;100.00
1616;BME280;801;47.982;7.810;2023-11-19T07:44:46;98733.31;;;13.86;100.00
1616;BME280;801;47.982;7.810;2023-11-19T07:47:12;98741.00;;;14.18;100.00
1616;BME280;801;47.982;7.810;2023-11-19T07:49:39;98741.16;;;14.32;100.00
1616;BME280;801;47.982;7.810;2023-11-19T07:52:05;98739.25;;;13.88;100.00
1616;BME280;801;47.982;7.810;2023-11-19T07:54:33;98734.94;;;13.92;100.00
1616;BME280;801;47.982;7.810;2023-11-19T07:57:00;98735.19;;;13.90;100.00
1616;BME280;801;47.982;7.810;2023-11-19T07:59:26;98750.91;;;13.83;100.00
1616;BME280;801;47.982;7.810;2023-11-19T08:01:53;98750.88;;;13.94;100.00
1616;BME280;801;47.982;7.810;2023-11-19T08:04:19;98745.16;;;13.95;100.00
1616;BME280;801;47.982;7.810;2023-11-19T08:06:46;98766.88;;;13.80;100.00
1616;BME280;801;47.982;7.810;2023-11-19T08:09:12;98761.66;;;13.88;100.00
1616;BME280;801;47.982;7.810;2023-11-19T08:11:41;98750.03;;;13.93;100.00
1616;BME280;801;47.982;7.810;2023-11-19T08:14:08;98755.69;;;13.97;100.00
1616;BME280;801;47.982;7.810;2023-11-19T08:16:34;98772.22;;;13.90;100.00
1616;BME280;801;47.982;7.810;2023-11-19T08:19:02;98748.69;;;13.96;100.00
1616;BME280;801;47.982;7.810;2023-11-19T08:21:29;98764.38;;;13.94;100.00
1616;BME280;801;47.982;7.810;2023-11-19T08:23:55;98754.59;;;14.03;100.00
1616;BME280;801;47.982;7.810;2023-11-19T08:26:22;98736.78;;;13.97;100.00
1616;BME280;801;47.982;7.810;2023-11-19T08:28:50;98747.78;;;14.16;100.00
1616;BME280;801;47.982;7.810;2023-11-19T08:31:17;98739.84;;;14.24;100.00
1616;BME280;801;47.982;7.810;2023-11-19T08:33:43;98737.81;;;14.06;100.00
1616;BME280;801;47.982;7.810;2023-11-19T08:36:15;98751.63;;;14.04;100.00
1616;BME280;801;47.982;7.810;2023-11-19T08:38:42;98728.94;;;13.95;100.00
1616;BME280;801;47.982;7.810;2023-11-19T08:41:08;98766.53;;;13.91;100.00
1616;BME280;801;47.982;7.810;2023-11-19T08:43:35;98767.53;;;14.06;100.00
1616;BME280;801;47.982;7.810;2023-11-19T08:46:03;98737.22;;;14.14;100.00
1616;BME280;801;47.982;7.810;2023-11-19T08:48:30;98750.66;;;14.24;100.00
1616;BME280;801;47.982;7.810;2023-11-19T08:50:56;98751.81;;;14.13;100.00
1616;BME280;801;47.982;7.810;2023-11-19T08:53:23;98747.50;;;14.12;100.00
1616;BME280;801;47.982;7.810;2023-11-19T08:55:49;98743.97;;;14.17;100.00
1616;BME280;801;47.982;7.810;2023-11-19T08:58:16;98749.09;;;14.18;100.00
1616;BME280;801;47.982;7.810;2023-11-19T09:00:43;98753.31;;;14.35;100.00
1616;BME280;801;47.982;7.810;2023-11-19T09:03:11;98775.59;;;14.16;100.00
1616;BME280;801;47.982;7.810;2023-11-19T09:05:37;98756.63;;;14.21;100.00
1616;BME280;801;47.982;7.810;2023-11-19T09:08:04;98740.06;;;14.38;100.00
1616;BME280;801;47.982;7.810;2023-11-19T09:10:31;98730.66;;;14.25;100.00
1616;BME280;801;47.982;7.810;2023-11-19T09:12:58;98738.47;;;14.32;100.00
1616;BME280;801;47.982;7.810;2023-11-19T09:15:24;98758.97;;;14.38;100.00
1616;BME280;801;47.982;7.810;2023-11-19T09:17:51;98744.56;;;14.48;100.00
1616;BME280;801;47.982;7.810;2023-11-19T09:20:19;98751.81;;;14.18;100.00
1616;BME280;801;47.982;7.810;2023-11-19T09:22:45;98753.91;;;14.26;100.00
1616;BME280;801;47.982;7.810;2023-11-19T09:25:12;98759.28;;;14.31;100.00
1616;BME280;801;47.982;7.810;2023-11-19T09:27:42;98787.16;;;14.27;100.00
1616;BME280;801;47.982;7.810;2023-11-19T09:30:09;98771.34;;;14.44;100.00
1616;BME280;801;47.982;7.810;2023-11-19T09:32:35;98767.63;;;14.35;100.00
1616;BME280;801;47.982;7.810;2023-11-19T09:35:03;98754.63;;;14.37;100.00
1616;BME280;801;47.982;7.810;2023-11-19T09:37:31;98775.56;;;14.21;100.00
1616;BME280;801;47.982;7.810;2023-11-19T09:39:57;98772.47;;;14.83;100.00
1616;BME280;801;47.982;7.810;2023-11-19T09:42:24;98765.56;;;14.95;100.00
1616;BME280;801;47.982;7.810;2023-11-19T09:44:53;98765.44;;;14.42;100.00
1616;BME280;801;47.982;7.810;2023-11-19T09:47:21;98768.16;;;14.42;100.00
1616;BME280;801;47.982;7.810;2023-11-19T09:49:49;98763.53;;;14.43;100.00
1616;BME280;801;47.982;7.810;2023-11-19T09:52:15;98755.47;;;14.32;100.00
1616;BME280;801;47.982;7.810;2023-11-19T09:54:43;98743.44;;;14.59;100.00
1616;BME280;801;47.982;7.810;2023-11-19T09:57:11;98746.75;;;14.46;100.00
1616;BME280;801;47.982;7.810;2023-11-19T09:59:40;98746.25;;;14.39;100.00
1616;BME280;801;47.982;7.810;2023-11-19T10:02:08;98736.00;;;14.36;100.00
1616;BME280;801;47.982;7.810;2023-11-19T10:04:35;98747.09;;;14.34;100.00
1616;BME280;801;47.982;7.810;2023-11-19T10:07:03;98737.69;;;14.26;100.00
1616;BME280;801;47.982;7.810;2023-11-19T10:09:29;98749.28;;;14.71;100.00
1616;BME280;801;47.982;7.810;2023-11-19T10:11:57;98724.22;;;14.90;100.00
1616;BME280;801;47.982;7.810;2023-11-19T10:14:24;98741.59;;;14.84;100.00
1616;BME280;801;47.982;7.810;2023-11-19T10:16:50;98738.22;;;14.97;100.00
1616;BME280;801;47.982;7.810;2023-11-19T10:19:20;98794.22;;;14.62;100.00
1616;BME280;801;47.982;7.810;2023-11-19T10:21:47;98749.81;;;14.73;100.00
1616;BME280;801;47.982;7.810;2023-11-19T10:24:14;98755.88;;;14.55;100.00
1616;BME280;801;47.982;7.810;2023-11-19T10:26:41;98752.88;;;14.91;100.00
1616;BME280;801;47.982;7.810;2023-11-19T10:29:12;98753.00;;;14.81;100.00
1616;BME280;801;47.982;7.810;2023-11-19T10:31:39;98730.91;;;14.98;100.00
1616;BME280;801;47.982;7.810;2023-11-19T10:34:24;98737.22;;;14.88;100.00
1616;BME280;801;47.982;7.810;2023-11-19T10:36:51;98744.09;;;14.80;100.00
1616;BME280;801;47.982;7.810;2023-11-19T10:39:18;98737.16;;;14.98;100.00
1616;BME280;801;47.982;7.810;2023-11-19T10:41:46;98740.19;;;14.91;100.00
1616;BME280;801;47.982;7.810;2023-11-19T10:44:30;98719.88;;;14.94;100.00
1616;BME280;801;47.982;7.810;2023-11-19T10:46:59;98712.94;;;14.83;100.00
1616;BME280;801;47.982;7.810;2023-11-19T10:49:25;98727.22;;;14.88;100.00
1616;BME280;801;47.982;7.810;2023-11-19T10:51:53;98735.72;;;14.77;100.00
1616;BME280;801;47.982;7.810;2023-11-19T10:54:22;98729.16;;;14.83;100.00
1616;BME280;801;47.982;7.810;2023-11-19T10:56:54;98714.22;;;14.90;100.00
1616;BME280;801;47.982;7.810;2023-11-19T10:59:25;98726.31;;;14.98;100.00
1616;BME280;801;47.982;7.810;2023-11-19T11:01:55;98732.22;;;15.00;100.00
1616;BME280;801;47.982;7.810;2023-11-19T11:04:23;98716.66;;;15.16;100.00
1616;BME280;801;47.982;7.810;2023-11-19T11:06:51;98717.69;;;15.44;100.00
1616;BME280;801;47.982;7.810;2023-11-19T11:09:18;98720.38;;;16.63;100.00
1616;BME280;801;47.982;7.810;2023-11-19T11:11:46;98728.47;;;15.73;100.00
1616;BME280;801;47.982;7.810;2023-11-19T11:14:13;98738.22;;;15.50;100.00
1616;BME280;801;47.982;7.810;2023-11-19T11:16:43;98713.75;;;15.31;100.00
1616;BME280;801;47.982;7.810;2023-11-19T11:19:10;98742.84;;;15.45;100.00
1616;BME280;801;47.982;7.810;2023-11-19T11:21:38;98715.63;;;15.36;100.00
1616;BME280;801;47.982;7.810;2023-11-19T11:24:27;98718.50;;;15.21;100.00
1616;BME280;801;47.982;7.810;2023-11-19T11:27:28;98744.84;;;15.39;100.00
1616;BME280;801;47.982;7.810;2023-11-19T11:30:10;98733.25;;;15.33;100.00
1616;BME280;801;47.982;7.810;2023-11-19T11:32:44;98740.84;;;15.31;100.00
1616;BME280;801;47.982;7.810;2023-11-19T11:35:29;98711.47;;;15.44;100.00
1616;BME280;801;47.982;7.810;2023-11-19T11:38:03;98708.19;;;15.47;100.00
1616;BME280;801;47.982;7.810;2023-11-19T11:40:30;98748.53;;;15.48;100.00
1616;BME280;801;47.982;7.810;2023-11-19T11:42:57;98705.53;;;15.18;100.00
1616;BME280;801;47.982;7.810;2023-11-19T11:45:35;98722.56;;;15.18;100.00
1616;BME280;801;47.982;7.810;2023-11-19T11:48:15;98701.28;;;15.11;100.00
1616;BME280;801;47.982;7.810;2023-11-19T11:50:53;98707.25;;;15.08;100.00
1616;BME280;801;47.982;7.810;2023-11-19T11:53:21;98706.22;;;15.28;100.00
1616;BME280;801;47.982;7.810;2023-11-19T11:55:55;98733.41;;;15.18;100.00
1616;BME280;801;47.982;7.810;2023-11-19T11:58:29;98705.78;;;15.45;100.00
1616;BME280;801;47.982;7.810;2023-11-19T12:00:58;98688.88;;;15.53;100.00
1616;BME280;801;47.982;7.810;2023-11-19T12:03:29;98701.06;;;15.32;100.00
1616;BME280;801;47.982;7.810;2023-11-19T12:05:57;98740.16;;;15.21;100.00
1616;BME280;801;47.982;7.810;2023-11-19T12:08:28;98692.44;;;15.49;100.00
1616;BME280;801;47.982;7.810;2023-11-19T12:10:57;98683.16;;;15.36;100.00
1616;BME280;801;47.982;7.810;2023-11-19T12:13:52;98695.50;;;15.42;100.00
1616;BME280;801;47.982;7.810;2023-11-19T12:16:20;98696.38;;;15.13;100.00
1616;BME280;801;47.982;7.810;2023-11-19T12:18:48;98689.81;;;15.20;100.00
1616;BME280;801;47.982;7.810;2023-11-19T12:21:30;98689.59;;;15.16;100.00
1616;BME280;801;47.982;7.810;2023-11-19T12:23:58;98697.22;;;15.09;100.00
1616;BME280;801;47.982;7.810;2023-11-19T12:26:33;98690.50;;;15.30;100.00
1616;BME280;801;47.982;7.810;2023-11-19T12:29:01;98697.53;;;15.31;100.00
1616;BME280;801;47.982;7.810;2023-11-19T12:31:29;98686.81;;;15.45;100.00
1616;BME280;801;47.982;7.810;2023-11-19T12:33:57;98693.13;;;15.60;100.00
1616;BME280;801;47.982;7.810;2023-11-19T12:36:23;98686.94;;;15.35;100.00
1616;BME280;801;47.982;7.810;2023-11-19T12:38:50;98680.44;;;15.36;100.00
1616;BME280;801;47.982;7.810;2023-11-19T12:41:16;98674.59;;;15.48;100.00
1616;BME280;801;47.982;7.810;2023-11-19T12:43:47;98690.16;;;15.37;100.00
1616;BME280;801;47.982;7.810;2023-11-19T12:46:17;98681.25;;;15.55;100.00
1616;BME280;801;47.982;7.810;2023-11-19T12:48:45;98694.06;;;15.50;100.00
1616;BME280;801;47.982;7.810;2023-11-19T12:51:13;98703.41;;;15.14;100.00
1616;BME280;801;47.982;7.810;2023-11-19T12:53:47;98703.88;;;15.22;100.00
1616;BME280;801;47.982;7.810;2023-11-19T12:56:14;98696.84;;;15.21;100.00
1616;BME280;801;47.982;7.810;2023-11-19T12:58:42;98687.44;;;15.37;100.00
1616;BME280;801;47.982;7.810;2023-11-19T13:01:09;98696.13;;;15.58;100.00
1616;BME280;801;47.982;7.810;2023-11-19T13:03:36;98677.13;;;15.63;100.00
1616;BME280;801;47.982;7.810;2023-11-19T13:06:05;98660.25;;;15.47;100.00
1616;BME280;801;47.982;7.810;2023-11-19T13:08:38;98671.38;;;15.22;100.00
1616;BME280;801;47.982;7.810;2023-11-19T13:11:05;98659.25;;;15.38;100.00
1616;BME280;801;47.982;7.810;2023-11-19T13:13:32;98672.53;;;16.02;100.00
1616;BME280;801;47.982;7.810;2023-11-19T13:16:03;98658.78;;;15.79;100.00
1616;BME280;801;47.982;7.810;2023-11-19T13:18:30;98659.06;;;15.96;100.00
1616;BME280;801;47.982;7.810;2023-11-19T13:20:57;98657.28;;;16.38;100.00
1616;BME280;801;47.982;7.810;2023-11-19T13:23:24;98679.31;;;16.37;100.00
1616;BME280;801;47.982;7.810;2023-11-19T13:25:51;98660.84;;;16.39;100.00